createdAt,value
2023-03-06T00:00:24.019Z,49.71
2023-03-06T00:02:52.142Z,49.40
2023-03-06T00:05:19.078Z,49.40
2023-03-06T00:07:45.705Z,49.71
2023-03-06T00:10:15.043Z,49.49
2023-03-06T00:12:42.076Z,49.43
2023-03-06T00:15:09.547Z,49.93
2023-03-06T00:17:36.445Z,49.50
2023-03-06T00:20:04.670Z,49.71
2023-03-06T00:22:31.476Z,49.61
2023-03-06T00:24:58.271Z,49.50
2023-03-06T00:27:26.333Z,49.78
2023-03-06T00:29:57.083Z,49.68
2023-03-06T00:32:24.341Z,49.86
2023-03-06T00:34:52.687Z,49.83
2023-03-06T00:37:19.976Z,49.61
2023-03-06T00:39:46.692Z,49.76
2023-03-06T00:42:13.628Z,49.62
2023-03-06T00:44:40.326Z,49.79
2023-03-06T00:47:07.500Z,49.86
2023-03-06T00:49:34.326Z,49.94
2023-03-06T00:52:01.117Z,49.61
2023-03-06T00:54:27.741Z,49.71
2023-03-06T00:56:54.400Z,49.72
2023-03-06T00:59:20.989Z,49.64
2023-03-06T01:01:47.702Z,49.81
2023-03-06T01:04:14.687Z,49.88
2023-03-06T01:06:41.306Z,50.03
2023-03-06T01:09:08.026Z,49.63
2023-03-06T01:11:34.765Z,49.92
2023-03-06T01:14:01.414Z,49.65
2023-03-06T01:16:28.164Z,49.89
2023-03-06T01:18:54.810Z,49.84
2023-03-06T01:21:23.209Z,49.85
2023-03-06T01:23:50.085Z,49.71
2023-03-06T01:26:16.764Z,49.67
2023-03-06T01:28:43.690Z,49.59
2023-03-06T01:31:10.334Z,49.68
2023-03-06T01:33:37.333Z,49.85
2023-03-06T01:36:06.418Z,49.70
2023-03-06T01:38:33.365Z,49.55
2023-03-06T01:41:00.094Z,49.87
2023-03-06T01:43:30.938Z,49.83
2023-03-06T01:46:28.996Z,49.91
2023-03-06T01:49:03.268Z,49.57
2023-03-06T01:51:43.539Z,50.02
2023-03-06T01:54:18.316Z,49.76
2023-03-06T01:56:46.929Z,49.47
2023-03-06T01:59:14.717Z,49.48
2023-03-06T02:01:41.797Z,49.78
2023-03-06T02:04:09.334Z,49.34
2023-03-06T02:06:38.692Z,49.84
2023-03-06T02:09:06.144Z,49.49
2023-03-06T02:11:33.015Z,49.40
2023-03-06T02:13:59.695Z,49.51
2023-03-06T02:16:28.730Z,49.48
2023-03-06T02:18:55.807Z,49.42
2023-03-06T02:21:28.968Z,49.54
2023-03-06T02:24:21.311Z,49.80
2023-03-06T02:26:49.587Z,49.38
2023-03-06T02:29:26.744Z,49.54
2023-03-06T02:31:55.540Z,49.71
2023-03-06T02:34:22.381Z,49.27
2023-03-06T02:36:51.494Z,49.46
2023-03-06T02:39:24.455Z,49.42
2023-03-06T02:41:51.691Z,49.62
2023-03-06T02:44:21.390Z,49.56
2023-03-06T02:46:48.068Z,49.75
2023-03-06T02:49:14.749Z,49.58
2023-03-06T02:51:41.422Z,49.75
2023-03-06T02:54:08.007Z,49.95
2023-03-06T02:56:34.718Z,49.96
2023-03-06T02:59:02.328Z,49.94
2023-03-06T03:01:29.100Z,49.48
2023-03-06T03:03:55.717Z,49.86
2023-03-06T03:06:22.371Z,49.84
2023-03-06T03:08:50.157Z,49.99
2023-03-06T03:11:17.135Z,49.87
2023-03-06T03:13:44.553Z,49.94
2023-03-06T03:16:16.752Z,49.99
2023-03-06T03:18:48.116Z,49.65
2023-03-06T03:21:17.590Z,49.67
2023-03-06T03:23:45.005Z,50.01
2023-03-06T03:26:15.199Z,49.71
2023-03-06T03:28:46.546Z,49.56
2023-03-06T03:31:16.745Z,49.85
2023-03-06T03:33:44.032Z,50.00
2023-03-06T03:36:12.072Z,50.02
2023-03-06T03:38:42.152Z,49.94
2023-03-06T03:41:09.089Z,50.07
2023-03-06T03:43:36.194Z,50.46
2023-03-06T03:46:04.440Z,50.21
2023-03-06T03:48:31.245Z,49.96
2023-03-06T03:51:12.925Z,50.21
2023-03-06T03:53:44.790Z,49.76
2023-03-06T03:56:13.998Z,50.01
2023-03-06T03:58:49.638Z,49.86
2023-03-06T04:01:16.414Z,49.97
2023-03-06T04:03:43.412Z,50.07
2023-03-06T04:06:11.310Z,50.01
2023-03-06T04:08:38.993Z,49.99
2023-03-06T04:11:06.092Z,49.84
2023-03-06T04:13:32.983Z,49.92
2023-03-06T04:15:59.875Z,49.89
2023-03-06T04:18:28.613Z,49.74
2023-03-06T04:20:59.454Z,49.84
2023-03-06T04:23:27.894Z,49.56
2023-03-06T04:25:54.995Z,49.95
2023-03-06T04:28:22.970Z,49.87
2023-03-06T04:30:50.078Z,49.88
2023-03-06T04:33:17.270Z,49.58
2023-03-06T04:35:44.600Z,50.08
2023-03-06T04:38:17.458Z,49.85
2023-03-06T04:40:45.116Z,49.55
2023-03-06T04:43:12.009Z,49.45
2023-03-06T04:45:38.763Z,49.57
2023-03-06T04:48:05.814Z,49.33
2023-03-06T04:50:33.214Z,49.47
2023-03-06T04:53:01.417Z,49.63
2023-03-06T04:55:28.245Z,49.42
2023-03-06T04:57:55.022Z,49.30
2023-03-06T05:00:24.128Z,49.42
2023-03-06T05:02:51.369Z,49.66
2023-03-06T05:05:18.774Z,49.76
2023-03-06T05:07:45.567Z,49.70
2023-03-06T05:10:14.857Z,49.81
2023-03-06T05:12:41.641Z,49.67
2023-03-06T05:15:09.716Z,49.65
2023-03-06T05:17:37.003Z,49.23
2023-03-06T05:20:06.240Z,49.60
2023-03-06T05:22:34.024Z,49.41
2023-03-06T05:25:00.662Z,49.26
2023-03-06T05:27:27.688Z,48.84
2023-03-06T05:29:54.631Z,49.38
2023-03-06T05:32:21.698Z,48.92
2023-03-06T05:34:48.890Z,49.12
2023-03-06T05:37:15.711Z,49.33
2023-03-06T05:39:42.714Z,49.15
2023-03-06T05:42:09.535Z,49.12
2023-03-06T05:44:36.310Z,49.36
2023-03-06T05:47:03.314Z,49.32
2023-03-06T05:49:33.758Z,49.09
2023-03-06T05:52:01.237Z,49.86
2023-03-06T05:54:27.978Z,51.27
2023-03-06T05:56:54.641Z,51.53
2023-03-06T05:59:21.381Z,52.10
2023-03-06T06:01:48.261Z,52.97
2023-03-06T06:04:15.326Z,53.36
2023-03-06T06:06:42.023Z,53.43
2023-03-06T06:09:08.605Z,53.87
2023-03-06T06:11:35.298Z,54.37
2023-03-06T06:14:01.926Z,54.64
2023-03-06T06:16:28.595Z,55.02
2023-03-06T06:18:55.152Z,54.80
2023-03-06T06:21:21.870Z,55.28
2023-03-06T06:23:48.435Z,55.12
2023-03-06T06:26:15.116Z,55.57
2023-03-06T06:28:41.752Z,55.13
2023-03-06T06:31:12.664Z,55.49
2023-03-06T06:33:40.364Z,55.14
2023-03-06T06:36:15.740Z,55.54
2023-03-06T06:38:43.409Z,55.55
2023-03-06T06:41:51.810Z,55.50
2023-03-06T06:43:59.003Z,55.49
2023-03-06T06:47:10.863Z,55.99
2023-03-06T06:49:14.877Z,55.68
2023-03-06T06:51:42.018Z,55.81
2023-03-06T06:54:09.812Z,55.34
2023-03-06T06:56:36.504Z,55.44
2023-03-06T06:59:16.077Z,55.73
2023-03-06T07:01:43.869Z,55.76
2023-03-06T07:04:13.280Z,55.59
2023-03-06T07:06:40.535Z,55.40
2023-03-06T07:09:08.270Z,55.67
2023-03-06T07:11:34.883Z,55.78
2023-03-06T07:14:02.015Z,56.15
2023-03-06T07:16:28.654Z,55.99
2023-03-06T07:18:55.286Z,55.69
2023-03-06T07:21:22.247Z,56.13
2023-03-06T07:23:48.840Z,55.82
2023-03-06T07:26:15.563Z,55.58
2023-03-06T07:28:52.069Z,55.57
2023-03-06T07:31:23.745Z,55.67
2023-03-06T07:33:51.324Z,55.74
2023-03-06T07:36:18.277Z,55.56
2023-03-06T07:38:44.951Z,55.27
2023-03-06T07:41:13.747Z,55.25
2023-03-06T07:43:41.251Z,55.14
2023-03-06T07:46:08.696Z,55.20
2023-03-06T07:48:39.127Z,55.03
2023-03-06T07:51:07.964Z,55.02
2023-03-06T07:53:35.336Z,54.73
2023-03-06T07:56:08.572Z,54.63
2023-03-06T07:58:36.664Z,54.73
2023-03-06T08:01:08.370Z,54.36
2023-03-06T08:03:35.925Z,54.54
2023-03-06T08:06:16.691Z,54.42
2023-03-06T08:08:44.510Z,54.45
2023-03-06T08:11:12.545Z,53.99
2023-03-06T08:13:39.932Z,54.18
2023-03-06T08:16:07.218Z,53.95
2023-03-06T08:18:34.105Z,54.47
2023-03-06T08:21:05.061Z,54.55
2023-03-06T08:23:32.329Z,54.09
2023-03-06T08:26:00.230Z,54.72
2023-03-06T08:28:28.481Z,54.37
2023-03-06T08:30:56.232Z,53.85
2023-03-06T08:33:23.688Z,54.28
2023-03-06T08:35:50.531Z,54.43
2023-03-06T08:38:17.263Z,54.20
2023-03-06T08:40:43.905Z,53.51
2023-03-06T08:43:13.992Z,53.84
2023-03-06T08:45:40.991Z,53.94
2023-03-06T08:48:07.868Z,53.84
2023-03-06T08:50:34.553Z,53.50
2023-03-06T08:53:01.090Z,53.97
2023-03-06T08:55:28.183Z,54.73
2023-03-06T08:57:54.685Z,55.11
2023-03-06T09:00:21.544Z,55.46
2023-03-06T09:02:48.230Z,55.16
2023-03-06T09:05:14.848Z,55.09
2023-03-06T09:07:41.478Z,55.41
2023-03-06T09:10:11.942Z,55.50
2023-03-06T09:12:49.765Z,55.27
2023-03-06T09:15:19.166Z,55.10
2023-03-06T09:17:45.979Z,55.24
2023-03-06T09:20:12.882Z,54.86
2023-03-06T09:22:42.357Z,54.93
2023-03-06T09:25:10.537Z,54.67
2023-03-06T09:27:37.224Z,54.70
2023-03-06T09:30:04.537Z,54.57
2023-03-06T09:32:31.347Z,54.48
2023-03-06T09:34:57.950Z,54.14
2023-03-06T09:37:24.642Z,54.43
2023-03-06T09:39:51.278Z,54.48
2023-03-06T09:42:20.562Z,54.12
2023-03-06T09:44:52.299Z,53.77
2023-03-06T09:47:37.678Z,53.26
2023-03-06T09:50:30.901Z,53.68
2023-03-06T09:53:21.981Z,53.70
2023-03-06T09:55:51.693Z,53.78
2023-03-06T09:58:25.810Z,53.79
2023-03-06T10:01:03.848Z,54.15
2023-03-06T10:03:38.253Z,53.29
2023-03-06T10:06:16.287Z,53.81
2023-03-06T10:08:42.942Z,53.58
2023-03-06T10:11:10.774Z,53.00
2023-03-06T10:13:46.913Z,52.48
2023-03-06T10:16:26.877Z,52.50
2023-03-06T10:19:04.736Z,52.02
2023-03-06T10:21:45.806Z,52.04
2023-03-06T10:24:27.319Z,52.37
2023-03-06T10:27:08.941Z,51.79
2023-03-06T10:30:01.511Z,52.64
2023-03-06T10:32:48.200Z,52.69
2023-03-06T10:38:18.910Z,52.71
2023-03-06T10:41:11.718Z,53.37
2023-03-06T10:43:41.297Z,53.64
2023-03-06T10:46:10.589Z,54.00
2023-03-06T10:48:40.974Z,53.76
2023-03-06T10:51:21.746Z,53.61
2023-03-06T10:53:53.505Z,53.28
2023-03-06T10:56:52.684Z,53.23
2023-03-06T10:59:28.473Z,53.59
2023-03-06T11:02:20.858Z,53.71
2023-03-06T11:04:52.225Z,54.13
2023-03-06T11:07:28.397Z,53.92
2023-03-06T11:09:58.026Z,54.54
2023-03-06T11:12:32.307Z,54.37
2023-03-06T11:15:22.687Z,54.85
2023-03-06T11:18:05.142Z,54.92
2023-03-06T11:20:52.532Z,55.60
2023-03-06T11:23:41.347Z,55.31
2023-03-06T11:26:17.070Z,55.85
2023-03-06T11:28:50.280Z,55.81
2023-03-06T11:31:21.276Z,55.84
2023-03-06T11:33:55.016Z,55.38
2023-03-06T11:36:38.962Z,55.50
2023-03-06T11:39:19.558Z,55.13
2023-03-06T11:42:05.012Z,55.50
2023-03-06T11:44:47.919Z,55.80
2023-03-06T11:47:22.799Z,55.81
2023-03-06T11:49:55.490Z,55.99
2023-03-06T11:52:25.943Z,55.96
2023-03-06T11:54:57.346Z,55.89
2023-03-06T11:57:35.750Z,55.71
2023-03-06T12:00:27.809Z,55.60
2023-03-06T12:03:17.839Z,55.78
2023-03-06T12:06:19.388Z,55.60
2023-03-06T12:09:04.896Z,55.43
2023-03-06T12:11:36.419Z,55.10
2023-03-06T12:14:22.036Z,55.45
2023-03-06T12:17:02.014Z,54.79
2023-03-06T12:19:40.370Z,54.81
2023-03-06T12:22:22.148Z,54.95
2023-03-06T12:25:10.830Z,55.07
2023-03-06T12:27:46.549Z,54.63
2023-03-06T12:30:28.625Z,55.13
2023-03-06T12:33:14.060Z,55.46
2023-03-06T12:36:17.625Z,55.21
2023-03-06T12:39:06.482Z,55.32
2023-03-06T12:41:51.607Z,55.01
2023-03-06T12:45:03.256Z,54.86
2023-03-06T12:47:31.668Z,53.58
2023-03-06T12:50:03.412Z,53.64
2023-03-06T12:52:31.317Z,54.32
2023-03-06T12:55:05.062Z,53.99
2023-03-06T12:57:31.824Z,53.37
2023-03-06T12:59:58.515Z,53.67
2023-03-06T13:02:53.859Z,52.66
2023-03-06T13:05:42.441Z,53.52
2023-03-06T13:08:33.714Z,52.90
2023-03-06T13:11:44.771Z,53.19
2023-03-06T13:14:23.631Z,52.73
2023-03-06T13:16:50.692Z,53.16
2023-03-06T13:19:23.722Z,53.58
2023-03-06T13:21:56.369Z,53.91
2023-03-06T13:24:37.532Z,54.27
2023-03-06T13:27:06.915Z,54.17
2023-03-06T13:29:36.265Z,54.20
2023-03-06T13:32:03.102Z,54.50
2023-03-06T13:34:33.687Z,54.31
2023-03-06T13:37:23.206Z,54.42
2023-03-06T13:39:55.841Z,54.63
2023-03-06T13:42:36.712Z,55.13
2023-03-06T13:45:06.980Z,54.76
2023-03-06T13:48:14.119Z,54.68
2023-03-06T13:50:47.581Z,54.42
2023-03-06T13:53:32.522Z,54.83
2023-03-06T13:56:30.034Z,54.84
2023-03-06T13:59:15.615Z,54.43
2023-03-06T14:02:00.007Z,54.54
2023-03-06T14:04:41.951Z,54.41
2023-03-06T14:07:19.690Z,54.16
2023-03-06T14:09:48.564Z,54.52
2023-03-06T14:12:25.112Z,54.46
2023-03-06T14:14:58.476Z,54.69
2023-03-06T14:17:37.898Z,54.82
2023-03-06T14:20:16.551Z,55.08
2023-03-06T14:22:43.335Z,55.31
2023-03-06T14:25:12.954Z,54.88
2023-03-06T14:28:05.735Z,54.71
2023-03-06T14:30:48.941Z,54.75
2023-03-06T14:33:31.178Z,54.58
2023-03-06T14:36:01.811Z,54.90
2023-03-06T14:38:32.317Z,55.15
2023-03-06T14:40:59.214Z,55.57
2023-03-06T14:43:31.126Z,55.29
2023-03-06T14:46:03.254Z,55.63
2023-03-06T14:48:42.128Z,55.47
2023-03-06T14:51:21.664Z,55.56
2023-03-06T14:53:50.518Z,55.41
2023-03-06T14:56:22.256Z,55.40
2023-03-06T14:58:54.641Z,56.29
2023-03-06T15:01:28.544Z,57.46
2023-03-06T15:03:58.990Z,58.29
2023-03-06T15:06:31.361Z,58.44
2023-03-06T15:09:05.264Z,58.98
2023-03-06T15:11:52.810Z,58.91
2023-03-06T15:14:22.443Z,58.57
2023-03-06T15:16:49.031Z,59.15
2023-03-06T15:19:21.355Z,59.90
2023-03-06T15:21:51.182Z,59.81
2023-03-06T15:24:37.035Z,59.84
2023-03-06T15:27:05.973Z,59.71
2023-03-06T15:29:33.353Z,59.93
2023-03-06T15:32:14.651Z,59.78
2023-03-06T15:34:41.459Z,60.07
2023-03-06T15:37:27.064Z,60.11
2023-03-06T15:40:09.448Z,59.75
2023-03-06T15:42:36.355Z,59.99
2023-03-06T15:45:15.816Z,59.91
2023-03-06T15:47:44.772Z,59.68
2023-03-06T15:50:28.783Z,59.65
2023-03-06T15:52:55.560Z,59.17
2023-03-06T15:55:25.604Z,59.02
2023-03-06T15:58:15.284Z,58.93
2023-03-06T16:00:42.474Z,58.85
2023-03-06T16:03:10.640Z,58.89
2023-03-06T16:05:37.616Z,58.96
2023-03-06T16:08:05.289Z,58.87
2023-03-06T16:10:33.906Z,59.02
2023-03-06T16:13:03.301Z,58.63
2023-03-06T16:15:33.115Z,58.45
2023-03-06T16:18:00.240Z,58.78
2023-03-06T16:20:28.604Z,58.84
2023-03-06T16:22:55.443Z,58.66
2023-03-06T16:25:23.992Z,58.92
2023-03-06T16:27:58.122Z,59.02
2023-03-06T16:30:30.429Z,59.11
2023-03-06T16:32:57.725Z,58.67
2023-03-06T16:35:24.954Z,59.08
2023-03-06T16:37:52.097Z,58.92
2023-03-06T16:40:28.413Z,58.88
2023-03-06T16:42:56.028Z,59.04
2023-03-06T16:45:24.498Z,59.08
2023-03-06T16:47:51.230Z,59.28
2023-03-06T16:50:30.132Z,59.83
2023-03-06T16:52:57.979Z,60.06
2023-03-06T16:55:26.389Z,59.49
2023-03-06T16:57:53.705Z,59.54
2023-03-06T17:00:20.983Z,59.72
2023-03-06T17:02:48.339Z,59.74
2023-03-06T17:05:14.973Z,59.88
2023-03-06T17:07:41.678Z,59.68
2023-03-06T17:10:11.289Z,59.66
2023-03-06T17:12:38.105Z,59.65
2023-03-06T17:15:06.198Z,59.85
2023-03-06T17:17:32.993Z,59.60
2023-03-06T17:19:59.637Z,60.04
2023-03-06T17:22:27.371Z,60.10
2023-03-06T17:24:54.554Z,59.77
2023-03-06T17:27:22.507Z,60.21
2023-03-06T17:29:49.138Z,59.88
2023-03-06T17:32:15.820Z,60.09
2023-03-06T17:34:42.662Z,59.92
2023-03-06T17:37:09.363Z,60.27
2023-03-06T17:39:37.521Z,59.45
2023-03-06T17:42:05.069Z,58.83
2023-03-06T17:44:32.782Z,58.43
2023-03-06T17:46:59.466Z,58.08
2023-03-06T17:49:26.100Z,57.90
2023-03-06T17:51:53.433Z,57.55
2023-03-06T17:54:19.953Z,57.85
2023-03-06T17:56:46.560Z,57.58
2023-03-06T17:59:13.409Z,56.83
2023-03-06T18:01:40.304Z,56.65
2023-03-06T18:04:07.642Z,57.00
2023-03-06T18:06:34.485Z,56.69
2023-03-06T18:09:01.246Z,56.62
2023-03-06T18:11:28.360Z,56.08
2023-03-06T18:13:54.913Z,56.40
2023-03-06T18:16:23.402Z,55.77
2023-03-06T18:18:55.005Z,55.68
2023-03-06T18:21:22.795Z,55.74
2023-03-06T18:23:49.994Z,55.33
2023-03-06T18:26:20.849Z,55.56
2023-03-06T18:28:51.407Z,54.80
2023-03-06T18:31:19.906Z,54.98
2023-03-06T18:33:50.077Z,54.92
2023-03-06T18:36:17.210Z,54.69
2023-03-06T18:38:45.635Z,54.57
2023-03-06T18:41:13.108Z,54.47
2023-03-06T18:43:39.999Z,54.49
2023-03-06T18:46:07.067Z,54.46
2023-03-06T18:48:33.734Z,54.00
2023-03-06T18:51:07.836Z,53.71
2023-03-06T18:53:34.846Z,53.82
2023-03-06T18:56:01.638Z,53.36
2023-03-06T18:58:28.289Z,53.25
2023-03-06T19:00:56.687Z,53.22
2023-03-06T19:03:25.127Z,52.93
2023-03-06T19:05:52.000Z,52.88
2023-03-06T19:08:18.711Z,52.70
2023-03-06T19:10:46.295Z,52.85
2023-03-06T19:13:13.765Z,52.67
2023-03-06T19:15:48.525Z,52.66
2023-03-06T19:18:17.362Z,52.62
2023-03-06T19:20:44.694Z,52.21
2023-03-06T19:23:11.473Z,52.42
2023-03-06T19:25:38.191Z,52.07
2023-03-06T19:28:05.017Z,51.96
2023-03-06T19:30:31.713Z,51.99
2023-03-06T19:32:58.373Z,51.68
2023-03-06T19:35:26.536Z,51.55
2023-03-06T19:37:53.415Z,51.61
2023-03-06T19:40:20.197Z,51.88
2023-03-06T19:42:46.922Z,51.59
2023-03-06T19:45:13.554Z,51.86
2023-03-06T19:47:40.266Z,51.64
2023-03-06T19:50:07.453Z,51.89
2023-03-06T19:52:36.594Z,51.67
2023-03-06T19:55:03.309Z,51.78
2023-03-06T19:57:29.905Z,51.36
2023-03-06T19:59:58.513Z,51.30
2023-03-06T20:02:27.199Z,51.53
2023-03-06T20:04:54.699Z,51.50
2023-03-06T20:07:21.618Z,51.39
2023-03-06T20:09:48.443Z,51.13
2023-03-06T20:12:15.796Z,51.06
2023-03-06T20:14:42.865Z,51.09
2023-03-06T20:17:09.515Z,51.27
2023-03-06T20:19:36.564Z,51.22
2023-03-06T20:22:03.544Z,51.17
2023-03-06T20:24:30.197Z,50.88
2023-03-06T20:26:58.360Z,51.22
2023-03-06T20:29:27.965Z,51.25
2023-03-06T20:31:56.336Z,51.26
2023-03-06T20:34:23.584Z,50.96
2023-03-06T20:36:50.595Z,50.76
2023-03-06T20:39:19.565Z,50.96
2023-03-06T20:41:46.806Z,50.85
2023-03-06T20:44:15.949Z,51.03
2023-03-06T20:46:42.857Z,50.75
2023-03-06T20:49:11.217Z,50.87
2023-03-06T20:51:41.858Z,51.12
2023-03-06T20:54:11.121Z,50.84
2023-03-06T20:56:39.630Z,51.07
2023-03-06T20:59:07.305Z,50.71
2023-03-06T21:01:36.564Z,50.58
2023-03-06T21:04:06.241Z,51.04
2023-03-06T21:06:33.423Z,50.91
2023-03-06T21:09:00.966Z,50.70
2023-03-06T21:11:27.957Z,50.93
2023-03-06T21:13:54.845Z,50.41
2023-03-06T21:16:24.645Z,50.46
2023-03-06T21:18:51.896Z,50.61
2023-03-06T21:21:21.077Z,50.65
2023-03-06T21:23:48.788Z,49.97
2023-03-06T21:26:18.280Z,50.27
2023-03-06T21:28:45.138Z,50.25
2023-03-06T21:31:13.077Z,49.92
2023-03-06T21:33:40.330Z,50.09
2023-03-06T21:36:07.593Z,50.04
2023-03-06T21:38:35.145Z,49.88
2023-03-06T21:41:16.293Z,49.93
2023-03-06T21:43:43.231Z,49.76
2023-03-06T21:46:11.124Z,49.88
2023-03-06T21:48:38.177Z,49.62
2023-03-06T21:51:06.849Z,49.58
2023-03-06T21:53:33.625Z,49.76
2023-03-06T21:56:01.802Z,49.95
2023-03-06T21:58:28.754Z,49.99
2023-03-06T22:00:55.471Z,50.08
2023-03-06T22:03:22.255Z,49.97
2023-03-06T22:05:48.928Z,49.59
2023-03-06T22:08:15.581Z,49.75
2023-03-06T22:10:42.218Z,49.49
2023-03-06T22:13:08.848Z,49.96
2023-03-06T22:15:35.454Z,49.79
2023-03-06T22:18:02.065Z,49.68
2023-03-06T22:20:28.644Z,49.52
2023-03-06T22:22:55.349Z,49.76
2023-03-06T22:25:21.968Z,49.84
2023-03-06T22:27:48.643Z,49.95
2023-03-06T22:30:15.502Z,49.52
2023-03-06T22:32:42.176Z,49.69
2023-03-06T22:35:09.013Z,49.61
2023-03-06T22:37:35.644Z,49.45
2023-03-06T22:40:02.256Z,49.54
2023-03-06T22:42:28.941Z,49.04
2023-03-06T22:44:55.512Z,49.52
2023-03-06T22:47:22.198Z,49.61
2023-03-06T22:49:48.804Z,49.72
2023-03-06T22:52:15.541Z,49.67
2023-03-06T22:54:42.224Z,49.41
2023-03-06T22:57:08.957Z,49.72
2023-03-06T22:59:35.533Z,49.57
2023-03-06T23:02:02.659Z,49.55
2023-03-06T23:04:29.490Z,49.74
2023-03-06T23:06:56.110Z,49.50
2023-03-06T23:09:22.854Z,49.46
2023-03-06T23:12:09.054Z,49.34
2023-03-06T23:14:54.694Z,49.69
2023-03-06T23:17:40.339Z,49.45
2023-03-06T23:20:25.645Z,49.41
2023-03-06T23:23:11.380Z,49.30
2023-03-06T23:25:40.584Z,49.64
2023-03-06T23:28:07.607Z,49.47
2023-03-06T23:30:34.258Z,49.29
2023-03-06T23:33:00.867Z,49.46
2023-03-06T23:35:27.569Z,49.51
2023-03-06T23:37:54.204Z,49.57
2023-03-06T23:40:21.373Z,49.38
2023-03-06T23:42:47.943Z,49.27
2023-03-06T23:45:14.613Z,49.06
2023-03-06T23:47:41.308Z,49.47
2023-03-06T23:50:08.646Z,49.38
2023-03-06T23:52:35.220Z,49.23
2023-03-06T23:55:01.923Z,49.76
2023-03-06T23:57:30.171Z,49.23
2023-03-06T23:59:57.109Z,49.08
